sensor_id;sensor_type;location;lat;lon;timestamp;temperature;humidity
8896;DHT22;4484;48.928;10.066;2023-04-24T00:01:07;8.80;99.90
8896;DHT22;4484;48.928;10.066;2023-04-24T00:03:34;8.80;99.90
8896;DHT22;4484;48.928;10.066;2023-04-24T00:06:02;8.80;99.90
8896;DHT22;4484;48.928;10.066;2023-04-24T00:08:29;8.80;99.90
8896;DHT22;4484;48.928;10.066;2023-04-24T00:10:56;8.70;99.90
8896;DHT22;4484;48.928;10.066;2023-04-24T00:13:23;8.80;99.90
8896;DHT22;4484;48.928;10.066;2023-04-24T00:15:50;8.70;99.90
8896;DHT22;4484;48.928;10.066;2023-04-24T00:18:17;8.70;99.90
8896;DHT22;4484;48.928;10.066;2023-04-24T00:20:44;8.60;99.90
8896;DHT22;4484;48.928;10.066;2023-04-24T00:23:11;8.70;99.90
8896;DHT22;4484;48.928;10.066;2023-04-24T00:25:38;8.60;99.90
8896;DHT22;4484;48.928;10.066;2023-04-24T00:28:06;8.60;99.90
8896;DHT22;4484;48.928;10.066;2023-04-24T00:30:33;8.60;99.90
8896;DHT22;4484;48.928;10.066;2023-04-24T00:33:00;8.60;99.90
8896;DHT22;4484;48.928;10.066;2023-04-24T00:35:27;8.70;99.90
8896;DHT22;4484;48.928;10.066;2023-04-24T00:37:54;8.70;99.90
8896;DHT22;4484;48.928;10.066;2023-04-24T00:40:21;8.70;99.90
8896;DHT22;4484;48.928;10.066;2023-04-24T00:42:48;8.60;99.90
8896;DHT22;4484;48.928;10.066;2023-04-24T00:45:15;8.60;99.90
8896;DHT22;4484;48.928;10.066;2023-04-24T00:47:43;8.60;99.90
8896;DHT22;4484;48.928;10.066;2023-04-24T00:50:10;8.60;99.90
8896;DHT22;4484;48.928;10.066;2023-04-24T00:52:37;8.60;99.90
8896;DHT22;4484;48.928;10.066;2023-04-24T00:55:08;8.60;99.90
8896;DHT22;4484;48.928;10.066;2023-04-24T00:57:35;8.60;99.90
8896;DHT22;4484;48.928;10.066;2023-04-24T01:00:03;8.60;99.90
8896;DHT22;4484;48.928;10.066;2023-04-24T01:02:32;8.60;99.90
8896;DHT22;4484;48.928;10.066;2023-04-24T01:05:01;8.70;99.90
8896;DHT22;4484;48.928;10.066;2023-04-24T01:07:28;8.60;99.90
8896;DHT22;4484;48.928;10.066;2023-04-24T01:09:55;8.70;99.90
8896;DHT22;4484;48.928;10.066;2023-04-24T01:12:24;8.70;99.90
8896;DHT22;4484;48.928;10.066;2023-04-24T01:14:51;8.70;99.90
8896;DHT22;4484;48.928;10.066;2023-04-24T01:17:18;8.70;99.90
8896;DHT22;4484;48.928;10.066;2023-04-24T01:19:46;8.70;99.90
8896;DHT22;4484;48.928;10.066;2023-04-24T01:22:14;8.70;99.90
8896;DHT22;4484;48.928;10.066;2023-04-24T01:24:42;8.60;99.90
8896;DHT22;4484;48.928;10.066;2023-04-24T01:27:11;8.60;99.90
8896;DHT22;4484;48.928;10.066;2023-04-24T01:29:39;8.70;99.90
8896;DHT22;4484;48.928;10.066;2023-04-24T01:32:06;8.60;99.90
8896;DHT22;4484;48.928;10.066;2023-04-24T01:34:33;8.60;99.90
8896;DHT22;4484;48.928;10.066;2023-04-24T01:37:01;8.60;99.90
8896;DHT22;4484;48.928;10.066;2023-04-24T01:39:27;8.60;99.90
8896;DHT22;4484;48.928;10.066;2023-04-24T01:41:56;8.60;99.90
8896;DHT22;4484;48.928;10.066;2023-04-24T01:44:23;8.60;99.90
8896;DHT22;4484;48.928;10.066;2023-04-24T01:46:50;8.60;99.90
8896;DHT22;4484;48.928;10.066;2023-04-24T01:49:17;8.60;99.90
8896;DHT22;4484;48.928;10.066;2023-04-24T01:51:45;8.60;99.90
8896;DHT22;4484;48.928;10.066;2023-04-24T01:54:12;8.70;99.90
8896;DHT22;4484;48.928;10.066;2023-04-24T01:56:42;8.60;99.90
8896;DHT22;4484;48.928;10.066;2023-04-24T01:59:10;8.60;99.90
8896;DHT22;4484;48.928;10.066;2023-04-24T02:01:38;8.60;99.90
8896;DHT22;4484;48.928;10.066;2023-04-24T02:04:06;8.50;99.90
8896;DHT22;4484;48.928;10.066;2023-04-24T02:06:34;8.50;99.90
8896;DHT22;4484;48.928;10.066;2023-04-24T02:09:02;8.50;99.90
8896;DHT22;4484;48.928;10.066;2023-04-24T02:11:29;8.50;99.90
8896;DHT22;4484;48.928;10.066;2023-04-24T02:13:57;8.50;99.90
8896;DHT22;4484;48.928;10.066;2023-04-24T02:16:24;8.50;99.90
8896;DHT22;4484;48.928;10.066;2023-04-24T02:18:51;8.50;99.90
8896;DHT22;4484;48.928;10.066;2023-04-24T02:21:18;8.60;99.90
8896;DHT22;4484;48.928;10.066;2023-04-24T02:23:45;8.60;99.90
8896;DHT22;4484;48.928;10.066;2023-04-24T02:26:12;8.60;99.90
8896;DHT22;4484;48.928;10.066;2023-04-24T02:28:39;8.60;99.90
8896;DHT22;4484;48.928;10.066;2023-04-24T02:31:06;8.60;99.90
8896;DHT22;4484;48.928;10.066;2023-04-24T02:33:33;8.60;99.90
8896;DHT22;4484;48.928;10.066;2023-04-24T02:36:00;8.60;99.90
8896;DHT22;4484;48.928;10.066;2023-04-24T02:38:27;8.60;99.90
8896;DHT22;4484;48.928;10.066;2023-04-24T02:40:54;8.60;99.90
8896;DHT22;4484;48.928;10.066;2023-04-24T02:43:21;8.60;99.90
8896;DHT22;4484;48.928;10.066;2023-04-24T02:45:48;8.50;99.90
8896;DHT22;4484;48.928;10.066;2023-04-24T02:48:15;8.50;99.90
8896;DHT22;4484;48.928;10.066;2023-04-24T02:50:44;8.50;99.90
8896;DHT22;4484;48.928;10.066;2023-04-24T02:53:11;8.50;99.90
8896;DHT22;4484;48.928;10.066;2023-04-24T02:55:38;8.40;99.90
8896;DHT22;4484;48.928;10.066;2023-04-24T02:58:06;8.40;99.90
8896;DHT22;4484;48.928;10.066;2023-04-24T03:00:33;8.40;99.90
8896;DHT22;4484;48.928;10.066;2023-04-24T03:03:00;8.40;99.90
8896;DHT22;4484;48.928;10.066;2023-04-24T03:05:27;8.40;99.90
8896;DHT22;4484;48.928;10.066;2023-04-24T03:07:54;8.30;99.90
8896;DHT22;4484;48.928;10.066;2023-04-24T03:10:21;8.30;99.90
8896;DHT22;4484;48.928;10.066;2023-04-24T03:12:49;8.30;99.90
8896;DHT22;4484;48.928;10.066;2023-04-24T03:15:17;8.30;99.90
8896;DHT22;4484;48.928;10.066;2023-04-24T03:17:44;8.30;99.90
8896;DHT22;4484;48.928;10.066;2023-04-24T03:20:11;8.30;99.90
8896;DHT22;4484;48.928;10.066;2023-04-24T03:22:39;8.20;99.90
8896;DHT22;4484;48.928;10.066;2023-04-24T03:25:07;8.20;99.90
8896;DHT22;4484;48.928;10.066;2023-04-24T03:27:37;8.20;99.90
8896;DHT22;4484;48.928;10.066;2023-04-24T03:30:22;8.20;99.90
8896;DHT22;4484;48.928;10.066;2023-04-24T03:32:54;8.10;99.90
8896;DHT22;4484;48.928;10.066;2023-04-24T03:35:25;8.10;99.90
8896;DHT22;4484;48.928;10.066;2023-04-24T03:37:53;8.10;99.90
8896;DHT22;4484;48.928;10.066;2023-04-24T03:40:38;8.10;99.90
8896;DHT22;4484;48.928;10.066;2023-04-24T03:43:17;8.10;99.90
8896;DHT22;4484;48.928;10.066;2023-04-24T03:45:44;8.10;99.90
8896;DHT22;4484;48.928;10.066;2023-04-24T03:48:12;8.10;99.90
8896;DHT22;4484;48.928;10.066;2023-04-24T03:50:39;8.10;99.90
8896;DHT22;4484;48.928;10.066;2023-04-24T03:53:09;8.10;99.90
8896;DHT22;4484;48.928;10.066;2023-04-24T03:55:39;8.10;99.90
8896;DHT22;4484;48.928;10.066;2023-04-24T03:58:06;8.10;99.90
8896;DHT22;4484;48.928;10.066;2023-04-24T04:00:33;8.10;99.90
8896;DHT22;4484;48.928;10.066;2023-04-24T04:03:30;8.10;99.90
8896;DHT22;4484;48.928;10.066;2023-04-24T04:05:57;8.10;99.90
8896;DHT22;4484;48.928;10.066;2023-04-24T04:08:25;8.20;99.90
8896;DHT22;4484;48.928;10.066;2023-04-24T04:10:52;8.10;99.90
8896;DHT22;4484;48.928;10.066;2023-04-24T04:13:19;8.10;99.90
8896;DHT22;4484;48.928;10.066;2023-04-24T04:15:46;8.10;99.90
8896;DHT22;4484;48.928;10.066;2023-04-24T04:18:13;8.10;99.90
8896;DHT22;4484;48.928;10.066;2023-04-24T04:20:39;8.10;99.90
8896;DHT22;4484;48.928;10.066;2023-04-24T04:23:06;8.10;99.90
8896;DHT22;4484;48.928;10.066;2023-04-24T04:25:43;8.10;99.90
8896;DHT22;4484;48.928;10.066;2023-04-24T04:28:10;8.00;99.90
8896;DHT22;4484;48.928;10.066;2023-04-24T04:30:37;8.00;99.90
8896;DHT22;4484;48.928;10.066;2023-04-24T04:33:04;8.00;99.90
8896;DHT22;4484;48.928;10.066;2023-04-24T04:35:33;8.00;99.90
8896;DHT22;4484;48.928;10.066;2023-04-24T04:37:59;8.00;99.90
8896;DHT22;4484;48.928;10.066;2023-04-24T04:40:56;8.00;99.90
8896;DHT22;4484;48.928;10.066;2023-04-24T04:43:26;8.10;99.90
8896;DHT22;4484;48.928;10.066;2023-04-24T04:45:54;8.10;99.90
8896;DHT22;4484;48.928;10.066;2023-04-24T04:48:40;8.10;99.90
8896;DHT22;4484;48.928;10.066;2023-04-24T04:51:07;8.10;99.90
8896;DHT22;4484;48.928;10.066;2023-04-24T04:53:34;8.10;99.90
8896;DHT22;4484;48.928;10.066;2023-04-24T04:56:01;8.10;99.90
8896;DHT22;4484;48.928;10.066;2023-04-24T04:58:39;8.10;99.90
8896;DHT22;4484;48.928;10.066;2023-04-24T05:01:09;8.10;99.90
8896;DHT22;4484;48.928;10.066;2023-04-24T05:03:40;8.10;99.90
8896;DHT22;4484;48.928;10.066;2023-04-24T05:06:11;8.10;99.90
8896;DHT22;4484;48.928;10.066;2023-04-24T05:08:39;8.10;99.90
8896;DHT22;4484;48.928;10.066;2023-04-24T05:11:11;8.20;99.90
8896;DHT22;4484;48.928;10.066;2023-04-24T05:13:39;8.10;99.90
8896;DHT22;4484;48.928;10.066;2023-04-24T05:16:12;8.20;99.90
8896;DHT22;4484;48.928;10.066;2023-04-24T05:18:40;8.20;99.90
8896;DHT22;4484;48.928;10.066;2023-04-24T05:21:09;8.20;99.90
8896;DHT22;4484;48.928;10.066;2023-04-24T05:23:39;8.20;99.90
8896;DHT22;4484;48.928;10.066;2023-04-24T05:26:06;8.20;99.90
8896;DHT22;4484;48.928;10.066;2023-04-24T05:28:34;8.20;99.90
8896;DHT22;4484;48.928;10.066;2023-04-24T05:31:07;8.20;99.90
8896;DHT22;4484;48.928;10.066;2023-04-24T05:33:34;8.30;99.90
8896;DHT22;4484;48.928;10.066;2023-04-24T05:36:01;8.30;99.90
8896;DHT22;4484;48.928;10.066;2023-04-24T05:38:28;8.30;99.90
8896;DHT22;4484;48.928;10.066;2023-04-24T05:40:55;8.20;99.90
8896;DHT22;4484;48.928;10.066;2023-04-24T05:43:22;8.10;99.90
8896;DHT22;4484;48.928;10.066;2023-04-24T05:45:49;7.90;99.90
8896;DHT22;4484;48.928;10.066;2023-04-24T05:48:17;7.90;99.90
8896;DHT22;4484;48.928;10.066;2023-04-24T05:50:44;7.80;99.90
8896;DHT22;4484;48.928;10.066;2023-04-24T05:53:11;7.80;99.90
8896;DHT22;4484;48.928;10.066;2023-04-24T05:55:38;7.80;99.90
8896;DHT22;4484;48.928;10.066;2023-04-24T05:58:05;7.80;99.90
8896;DHT22;4484;48.928;10.066;2023-04-24T06:00:34;7.90;99.90
8896;DHT22;4484;48.928;10.066;2023-04-24T06:03:06;8.00;99.90
8896;DHT22;4484;48.928;10.066;2023-04-24T06:05:33;8.00;99.90
8896;DHT22;4484;48.928;10.066;2023-04-24T06:08:02;8.00;99.90
8896;DHT22;4484;48.928;10.066;2023-04-24T06:10:33;8.00;99.90
8896;DHT22;4484;48.928;10.066;2023-04-24T06:13:00;8.00;99.90
8896;DHT22;4484;48.928;10.066;2023-04-24T06:15:30;8.00;99.90
8896;DHT22;4484;48.928;10.066;2023-04-24T06:18:06;8.00;99.90
8896;DHT22;4484;48.928;10.066;2023-04-24T06:20:33;8.00;99.90
8896;DHT22;4484;48.928;10.066;2023-04-24T06:23:01;8.10;99.90
8896;DHT22;4484;48.928;10.066;2023-04-24T06:25:28;8.10;99.90
8896;DHT22;4484;48.928;10.066;2023-04-24T06:27:55;8.10;99.90
8896;DHT22;4484;48.928;10.066;2023-04-24T06:30:23;8.10;99.90
8896;DHT22;4484;48.928;10.066;2023-04-24T06:32:50;8.20;99.90
8896;DHT22;4484;48.928;10.066;2023-04-24T06:35:17;8.20;99.90
8896;DHT22;4484;48.928;10.066;2023-04-24T06:37:44;8.20;99.90
8896;DHT22;4484;48.928;10.066;2023-04-24T06:40:11;8.30;99.90
8896;DHT22;4484;48.928;10.066;2023-04-24T06:42:38;8.40;99.90
8896;DHT22;4484;48.928;10.066;2023-04-24T06:45:07;8.50;99.90
8896;DHT22;4484;48.928;10.066;2023-04-24T06:47:34;8.60;99.90
8896;DHT22;4484;48.928;10.066;2023-04-24T06:50:01;8.70;99.90
8896;DHT22;4484;48.928;10.066;2023-04-24T06:52:28;8.70;99.90
8896;DHT22;4484;48.928;10.066;2023-04-24T06:55:00;8.80;99.90
8896;DHT22;4484;48.928;10.066;2023-04-24T06:57:28;8.80;99.90
8896;DHT22;4484;48.928;10.066;2023-04-24T06:59:54;8.80;99.90
8896;DHT22;4484;48.928;10.066;2023-04-24T07:02:21;8.90;99.90
8896;DHT22;4484;48.928;10.066;2023-04-24T07:04:48;9.00;99.90
8896;DHT22;4484;48.928;10.066;2023-04-24T07:07:15;9.10;99.90
8896;DHT22;4484;48.928;10.066;2023-04-24T07:09:43;9.10;99.90
8896;DHT22;4484;48.928;10.066;2023-04-24T07:12:11;9.30;99.90
8896;DHT22;4484;48.928;10.066;2023-04-24T07:14:38;9.50;99.90
8896;DHT22;4484;48.928;10.066;2023-04-24T07:17:06;9.60;99.90
8896;DHT22;4484;48.928;10.066;2023-04-24T07:19:35;9.60;99.90
8896;DHT22;4484;48.928;10.066;2023-04-24T07:22:02;9.60;99.90
8896;DHT22;4484;48.928;10.066;2023-04-24T07:24:30;9.60;99.90
8896;DHT22;4484;48.928;10.066;2023-04-24T07:26:58;9.60;99.90
8896;DHT22;4484;48.928;10.066;2023-04-24T07:29:27;9.60;99.90
8896;DHT22;4484;48.928;10.066;2023-04-24T07:31:54;9.60;99.90
8896;DHT22;4484;48.928;10.066;2023-04-24T07:34:21;9.60;99.90
8896;DHT22;4484;48.928;10.066;2023-04-24T07:36:48;9.70;99.90
8896;DHT22;4484;48.928;10.066;2023-04-24T07:39:15;9.80;99.90
8896;DHT22;4484;48.928;10.066;2023-04-24T07:41:41;10.20;99.90
8896;DHT22;4484;48.928;10.066;2023-04-24T07:44:08;10.80;99.90
8896;DHT22;4484;48.928;10.066;2023-04-24T07:46:35;11.20;99.90
8896;DHT22;4484;48.928;10.066;2023-04-24T07:49:02;11.50;99.90
8896;DHT22;4484;48.928;10.066;2023-04-24T07:51:40;11.90;99.90
8896;DHT22;4484;48.928;10.066;2023-04-24T07:54:06;12.20;99.90
8896;DHT22;4484;48.928;10.066;2023-04-24T07:56:34;12.50;99.90
8896;DHT22;4484;48.928;10.066;2023-04-24T07:59:01;12.60;99.90
8896;DHT22;4484;48.928;10.066;2023-04-24T08:01:28;12.70;99.90
8896;DHT22;4484;48.928;10.066;2023-04-24T08:03:54;12.60;99.90
8896;DHT22;4484;48.928;10.066;2023-04-24T08:06:22;12.50;99.90
8896;DHT22;4484;48.928;10.066;2023-04-24T08:08:49;12.30;99.90
8896;DHT22;4484;48.928;10.066;2023-04-24T08:11:18;12.30;99.90
8896;DHT22;4484;48.928;10.066;2023-04-24T08:13:44;12.80;99.90
8896;DHT22;4484;48.928;10.066;2023-04-24T08:16:11;13.60;99.90
8896;DHT22;4484;48.928;10.066;2023-04-24T08:18:38;14.40;99.90
8896;DHT22;4484;48.928;10.066;2023-04-24T08:21:05;14.80;99.90
8896;DHT22;4484;48.928;10.066;2023-04-24T08:23:32;14.60;99.90
8896;DHT22;4484;48.928;10.066;2023-04-24T08:25:59;14.10;99.90
8896;DHT22;4484;48.928;10.066;2023-04-24T08:28:26;13.60;99.90
8896;DHT22;4484;48.928;10.066;2023-04-24T08:30:52;13.00;99.90
8896;DHT22;4484;48.928;10.066;2023-04-24T08:33:22;12.60;99.90
8896;DHT22;4484;48.928;10.066;2023-04-24T08:35:49;12.20;99.90
8896;DHT22;4484;48.928;10.066;2023-04-24T08:38:16;11.90;99.90
8896;DHT22;4484;48.928;10.066;2023-04-24T08:40:43;11.60;99.90
8896;DHT22;4484;48.928;10.066;2023-04-24T08:43:13;11.40;99.90
8896;DHT22;4484;48.928;10.066;2023-04-24T08:45:41;11.20;99.90
8896;DHT22;4484;48.928;10.066;2023-04-24T08:48:09;11.00;99.90
8896;DHT22;4484;48.928;10.066;2023-04-24T08:50:53;10.90;99.90
8896;DHT22;4484;48.928;10.066;2023-04-24T08:53:20;10.70;99.90
8896;DHT22;4484;48.928;10.066;2023-04-24T08:55:48;10.80;99.90
8896;DHT22;4484;48.928;10.066;2023-04-24T08:58:16;10.80;99.90
8896;DHT22;4484;48.928;10.066;2023-04-24T09:00:44;10.80;99.90
8896;DHT22;4484;48.928;10.066;2023-04-24T09:03:15;10.80;99.90
8896;DHT22;4484;48.928;10.066;2023-04-24T09:05:48;10.90;99.90
8896;DHT22;4484;48.928;10.066;2023-04-24T09:08:19;11.00;99.90
8896;DHT22;4484;48.928;10.066;2023-04-24T09:10:46;11.10;99.90
8896;DHT22;4484;48.928;10.066;2023-04-24T09:13:18;11.20;99.90
8896;DHT22;4484;48.928;10.066;2023-04-24T09:15:45;11.40;99.90
8896;DHT22;4484;48.928;10.066;2023-04-24T09:18:12;11.70;99.90
8896;DHT22;4484;48.928;10.066;2023-04-24T09:21:01;11.70;99.90
8896;DHT22;4484;48.928;10.066;2023-04-24T09:23:30;11.70;99.90
8896;DHT22;4484;48.928;10.066;2023-04-24T09:25:58;11.50;99.90
8896;DHT22;4484;48.928;10.066;2023-04-24T09:28:37;11.30;99.90
8896;DHT22;4484;48.928;10.066;2023-04-24T09:31:13;11.10;99.90
8896;DHT22;4484;48.928;10.066;2023-04-24T09:33:54;11.00;99.90
8896;DHT22;4484;48.928;10.066;2023-04-24T09:36:28;10.90;99.90
8896;DHT22;4484;48.928;10.066;2023-04-24T09:39:03;10.90;99.90
8896;DHT22;4484;48.928;10.066;2023-04-24T09:41:32;10.90;99.90
8896;DHT22;4484;48.928;10.066;2023-04-24T09:44:13;10.90;99.90
8896;DHT22;4484;48.928;10.066;2023-04-24T09:46:45;11.00;99.90
8896;DHT22;4484;48.928;10.066;2023-04-24T09:49:14;11.50;99.90
8896;DHT22;4484;48.928;10.066;2023-04-24T09:51:44;12.00;99.90
8896;DHT22;4484;48.928;10.066;2023-04-24T09:54:16;12.00;99.90
8896;DHT22;4484;48.928;10.066;2023-04-24T09:56:48;12.60;99.90
8896;DHT22;4484;48.928;10.066;2023-04-24T09:59:16;13.30;99.90
8896;DHT22;4484;48.928;10.066;2023-04-24T10:01:44;13.50;99.90
8896;DHT22;4484;48.928;10.066;2023-04-24T10:04:41;13.50;99.90
8896;DHT22;4484;48.928;10.066;2023-04-24T10:07:08;13.50;99.90
8896;DHT22;4484;48.928;10.066;2023-04-24T10:09:36;13.60;99.90
8896;DHT22;4484;48.928;10.066;2023-04-24T10:12:03;13.70;99.90
8896;DHT22;4484;48.928;10.066;2023-04-24T10:14:30;13.60;99.90
8896;DHT22;4484;48.928;10.066;2023-04-24T10:16:58;13.60;99.90
8896;DHT22;4484;48.928;10.066;2023-04-24T10:19:26;13.50;99.90
8896;DHT22;4484;48.928;10.066;2023-04-24T10:21:53;14.00;99.90
8896;DHT22;4484;48.928;10.066;2023-04-24T10:24:22;14.30;99.90
8896;DHT22;4484;48.928;10.066;2023-04-24T10:26:49;14.40;99.90
8896;DHT22;4484;48.928;10.066;2023-04-24T10:29:18;14.30;99.90
8896;DHT22;4484;48.928;10.066;2023-04-24T10:31:45;14.10;99.90
8896;DHT22;4484;48.928;10.066;2023-04-24T10:34:16;13.80;99.90
8896;DHT22;4484;48.928;10.066;2023-04-24T10:36:53;13.40;99.90
8896;DHT22;4484;48.928;10.066;2023-04-24T10:39:24;12.90;99.90
8896;DHT22;4484;48.928;10.066;2023-04-24T10:41:54;12.30;99.90
8896;DHT22;4484;48.928;10.066;2023-04-24T10:44:24;11.90;99.90
8896;DHT22;4484;48.928;10.066;2023-04-24T10:46:55;11.60;99.90
8896;DHT22;4484;48.928;10.066;2023-04-24T10:49:30;11.30;99.90
8896;DHT22;4484;48.928;10.066;2023-04-24T10:52:04;11.20;99.90
8896;DHT22;4484;48.928;10.066;2023-04-24T10:54:34;11.10;99.90
8896;DHT22;4484;48.928;10.066;2023-04-24T10:59:52;11.80;99.90
8896;DHT22;4484;48.928;10.066;2023-04-24T11:02:37;12.40;99.90
8896;DHT22;4484;48.928;10.066;2023-04-24T11:05:05;13.20;99.90
8896;DHT22;4484;48.928;10.066;2023-04-24T11:08:10;13.80;99.90
8896;DHT22;4484;48.928;10.066;2023-04-24T11:10:44;13.90;99.90
8896;DHT22;4484;48.928;10.066;2023-04-24T11:13:16;13.60;99.90
8896;DHT22;4484;48.928;10.066;2023-04-24T11:15:43;13.30;99.90
8896;DHT22;4484;48.928;10.066;2023-04-24T11:18:16;12.70;99.90
8896;DHT22;4484;48.928;10.066;2023-04-24T11:20:44;12.40;99.90
8896;DHT22;4484;48.928;10.066;2023-04-24T11:23:12;12.10;99.90
8896;DHT22;4484;48.928;10.066;2023-04-24T11:25:39;11.90;99.90
8896;DHT22;4484;48.928;10.066;2023-04-24T11:28:07;11.70;99.90
8896;DHT22;4484;48.928;10.066;2023-04-24T11:30:40;11.60;99.90
8896;DHT22;4484;48.928;10.066;2023-04-24T11:33:07;11.60;99.90
8896;DHT22;4484;48.928;10.066;2023-04-24T11:35:40;11.70;99.90
8896;DHT22;4484;48.928;10.066;2023-04-24T11:38:07;11.80;99.90
8896;DHT22;4484;48.928;10.066;2023-04-24T11:40:49;11.90;99.90
8896;DHT22;4484;48.928;10.066;2023-04-24T11:43:16;11.80;99.90
8896;DHT22;4484;48.928;10.066;2023-04-24T11:45:48;11.80;99.90
8896;DHT22;4484;48.928;10.066;2023-04-24T11:48:20;11.80;99.90
8896;DHT22;4484;48.928;10.066;2023-04-24T11:50:50;11.90;99.90
8896;DHT22;4484;48.928;10.066;2023-04-24T11:53:19;11.80;99.90
8896;DHT22;4484;48.928;10.066;2023-04-24T11:55:48;11.80;99.90
8896;DHT22;4484;48.928;10.066;2023-04-24T11:58:14;11.70;99.90
8896;DHT22;4484;48.928;10.066;2023-04-24T12:00:41;11.60;99.90
8896;DHT22;4484;48.928;10.066;2023-04-24T12:03:10;11.50;99.90
8896;DHT22;4484;48.928;10.066;2023-04-24T12:05:38;11.40;99.90
8896;DHT22;4484;48.928;10.066;2023-04-24T12:08:06;11.60;99.90
8896;DHT22;4484;48.928;10.066;2023-04-24T12:10:33;11.90;99.90
8896;DHT22;4484;48.928;10.066;2023-04-24T12:13:01;12.20;99.90
8896;DHT22;4484;48.928;10.066;2023-04-24T12:15:28;12.40;99.90
8896;DHT22;4484;48.928;10.066;2023-04-24T12:17:56;12.60;99.90
8896;DHT22;4484;48.928;10.066;2023-04-24T12:20:27;13.40;99.90
8896;DHT22;4484;48.928;10.066;2023-04-24T12:22:55;13.70;99.90
8896;DHT22;4484;48.928;10.066;2023-04-24T12:25:27;14.20;99.90
8896;DHT22;4484;48.928;10.066;2023-04-24T12:30:27;13.90;99.90
8896;DHT22;4484;48.928;10.066;2023-04-24T12:33:00;13.50;99.90
8896;DHT22;4484;48.928;10.066;2023-04-24T12:35:28;13.20;99.90
8896;DHT22;4484;48.928;10.066;2023-04-24T12:38:11;13.00;99.90
8896;DHT22;4484;48.928;10.066;2023-04-24T12:40:40;12.80;99.90
8896;DHT22;4484;48.928;10.066;2023-04-24T12:43:18;12.70;99.90
8896;DHT22;4484;48.928;10.066;2023-04-24T12:45:48;12.70;99.90
8896;DHT22;4484;48.928;10.066;2023-04-24T12:48:15;12.70;99.90
8896;DHT22;4484;48.928;10.066;2023-04-24T12:50:43;12.70;99.90
8896;DHT22;4484;48.928;10.066;2023-04-24T12:53:13;12.70;99.90
8896;DHT22;4484;48.928;10.066;2023-04-24T12:55:40;12.70;99.90
8896;DHT22;4484;48.928;10.066;2023-04-24T12:58:07;12.60;99.90
8896;DHT22;4484;48.928;10.066;2023-04-24T13:00:34;12.50;99.90
8896;DHT22;4484;48.928;10.066;2023-04-24T13:03:01;12.30;99.90
8896;DHT22;4484;48.928;10.066;2023-04-24T13:05:29;12.20;99.90
8896;DHT22;4484;48.928;10.066;2023-04-24T13:07:57;12.10;99.90
8896;DHT22;4484;48.928;10.066;2023-04-24T13:10:24;12.00;99.90
8896;DHT22;4484;48.928;10.066;2023-04-24T13:12:51;12.00;99.90
8896;DHT22;4484;48.928;10.066;2023-04-24T13:15:17;11.90;99.90
8896;DHT22;4484;48.928;10.066;2023-04-24T13:17:44;11.90;99.90
8896;DHT22;4484;48.928;10.066;2023-04-24T13:20:11;11.80;99.90
8896;DHT22;4484;48.928;10.066;2023-04-24T13:22:38;11.80;99.90
8896;DHT22;4484;48.928;10.066;2023-04-24T13:25:05;11.70;99.90
8896;DHT22;4484;48.928;10.066;2023-04-24T13:27:33;11.80;99.90
8896;DHT22;4484;48.928;10.066;2023-04-24T13:30:00;11.80;99.90
8896;DHT22;4484;48.928;10.066;2023-04-24T13:32:27;11.80;99.90
8896;DHT22;4484;48.928;10.066;2023-04-24T13:34:56;12.00;99.90
8896;DHT22;4484;48.928;10.066;2023-04-24T13:37:23;12.10;99.90
8896;DHT22;4484;48.928;10.066;2023-04-24T13:39:50;12.20;99.90
8896;DHT22;4484;48.928;10.066;2023-04-24T13:42:18;12.20;99.90
8896;DHT22;4484;48.928;10.066;2023-04-24T13:44:46;12.10;99.90
8896;DHT22;4484;48.928;10.066;2023-04-24T13:47:13;11.90;99.90
8896;DHT22;4484;48.928;10.066;2023-04-24T13:49:40;11.60;99.90
8896;DHT22;4484;48.928;10.066;2023-04-24T13:52:06;11.40;99.90
8896;DHT22;4484;48.928;10.066;2023-04-24T13:54:34;11.40;99.90
8896;DHT22;4484;48.928;10.066;2023-04-24T13:57:01;11.40;99.90
8896;DHT22;4484;48.928;10.066;2023-04-24T13:59:29;11.60;99.90
8896;DHT22;4484;48.928;10.066;2023-04-24T14:01:56;11.60;99.90
8896;DHT22;4484;48.928;10.066;2023-04-24T14:04:23;11.60;99.90
8896;DHT22;4484;48.928;10.066;2023-04-24T14:06:50;12.00;99.90
8896;DHT22;4484;48.928;10.066;2023-04-24T14:09:17;12.10;99.90
8896;DHT22;4484;48.928;10.066;2023-04-24T14:11:44;12.60;99.90
8896;DHT22;4484;48.928;10.066;2023-04-24T14:14:11;13.10;99.90
8896;DHT22;4484;48.928;10.066;2023-04-24T14:16:38;13.50;99.90
8896;DHT22;4484;48.928;10.066;2023-04-24T14:19:05;13.60;99.90
8896;DHT22;4484;48.928;10.066;2023-04-24T14:21:33;13.30;99.90
8896;DHT22;4484;48.928;10.066;2023-04-24T14:24:00;13.00;99.90
8896;DHT22;4484;48.928;10.066;2023-04-24T14:26:26;12.70;99.90
8896;DHT22;4484;48.928;10.066;2023-04-24T14:28:53;12.50;99.90
8896;DHT22;4484;48.928;10.066;2023-04-24T14:31:33;12.20;99.90
8896;DHT22;4484;48.928;10.066;2023-04-24T14:33:59;12.00;99.90
8896;DHT22;4484;48.928;10.066;2023-04-24T14:36:26;12.10;99.90
8896;DHT22;4484;48.928;10.066;2023-04-24T14:38:53;12.10;99.90
8896;DHT22;4484;48.928;10.066;2023-04-24T14:41:20;11.80;99.90
8896;DHT22;4484;48.928;10.066;2023-04-24T14:43:47;11.60;99.90
8896;DHT22;4484;48.928;10.066;2023-04-24T14:46:14;11.40;99.90
8896;DHT22;4484;48.928;10.066;2023-04-24T14:48:41;11.30;99.90
8896;DHT22;4484;48.928;10.066;2023-04-24T14:51:07;11.10;99.90
8896;DHT22;4484;48.928;10.066;2023-04-24T14:53:34;10.90;99.90
8896;DHT22;4484;48.928;10.066;2023-04-24T14:56:01;10.90;99.90
8896;DHT22;4484;48.928;10.066;2023-04-24T14:58:29;10.80;99.90
8896;DHT22;4484;48.928;10.066;2023-04-24T15:00:56;10.70;99.90
8896;DHT22;4484;48.928;10.066;2023-04-24T15:03:23;10.70;99.90
8896;DHT22;4484;48.928;10.066;2023-04-24T15:05:50;10.60;99.90
8896;DHT22;4484;48.928;10.066;2023-04-24T15:08:17;10.70;99.90
8896;DHT22;4484;48.928;10.066;2023-04-24T15:10:44;10.70;99.90
8896;DHT22;4484;48.928;10.066;2023-04-24T15:13:11;10.80;99.90
8896;DHT22;4484;48.928;10.066;2023-04-24T15:15:38;11.00;99.90
8896;DHT22;4484;48.928;10.066;2023-04-24T15:18:05;11.20;99.90
8896;DHT22;4484;48.928;10.066;2023-04-24T15:20:33;11.20;99.90
8896;DHT22;4484;48.928;10.066;2023-04-24T15:23:03;11.10;99.90
8896;DHT22;4484;48.928;10.066;2023-04-24T15:25:30;11.10;99.90
8896;DHT22;4484;48.928;10.066;2023-04-24T15:27:57;11.00;99.90
8896;DHT22;4484;48.928;10.066;2023-04-24T15:30:25;11.10;99.90
8896;DHT22;4484;48.928;10.066;2023-04-24T15:32:52;11.00;99.90
8896;DHT22;4484;48.928;10.066;2023-04-24T15:35:19;10.80;99.90
8896;DHT22;4484;48.928;10.066;2023-04-24T15:37:46;10.70;99.90
8896;DHT22;4484;48.928;10.066;2023-04-24T15:40:13;10.60;99.90
8896;DHT22;4484;48.928;10.066;2023-04-24T15:42:42;10.50;99.90
8896;DHT22;4484;48.928;10.066;2023-04-24T15:45:10;10.50;99.90
8896;DHT22;4484;48.928;10.066;2023-04-24T15:47:38;10.40;99.90
8896;DHT22;4484;48.928;10.066;2023-04-24T15:50:06;10.40;99.90
8896;DHT22;4484;48.928;10.066;2023-04-24T15:52:36;10.30;99.90
8896;DHT22;4484;48.928;10.066;2023-04-24T15:55:04;10.30;99.90
8896;DHT22;4484;48.928;10.066;2023-04-24T15:57:31;10.40;99.90
8896;DHT22;4484;48.928;10.066;2023-04-24T15:59:58;10.60;99.90
8896;DHT22;4484;48.928;10.066;2023-04-24T16:02:26;10.80;99.90
8896;DHT22;4484;48.928;10.066;2023-04-24T16:04:53;10.80;99.90
8896;DHT22;4484;48.928;10.066;2023-04-24T16:07:20;10.70;99.90